sensor_id;sensor_type;location;lat;lon;timestamp;P1;durP1;ratioP1;P2;durP2;ratioP2
10687;SDS011;5392;42.688;23.298;2024-02-26T00:00:39;17.35;;;9.75;;
10687;SDS011;5392;42.688;23.298;2024-02-26T00:03:05;19.48;;;9.65;;
10687;SDS011;5392;42.688;23.298;2024-02-26T00:05:31;21.02;;;10.45;;
10687;SDS011;5392;42.688;23.298;2024-02-26T00:07:56;16.92;;;9.35;;
10687;SDS011;5392;42.688;23.298;2024-02-26T00:10:22;18.92;;;10.30;;
10687;SDS011;5392;42.688;23.298;2024-02-26T00:12:47;18.33;;;9.65;;
10687;SDS011;5392;42.688;23.298;2024-02-26T00:15:13;17.70;;;8.85;;
10687;SDS011;5392;42.688;23.298;2024-02-26T00:17:39;16.25;;;8.93;;
10687;SDS011;5392;42.688;23.298;2024-02-26T00:20:05;15.23;;;8.98;;
10687;SDS011;5392;42.688;23.298;2024-02-26T00:22:34;20.40;;;9.25;;
10687;SDS011;5392;42.688;23.298;2024-02-26T00:25:00;15.27;;;9.23;;
10687;SDS011;5392;42.688;23.298;2024-02-26T00:27:26;20.33;;;10.50;;
10687;SDS011;5392;42.688;23.298;2024-02-26T00:29:51;22.40;;;10.57;;
10687;SDS011;5392;42.688;23.298;2024-02-26T00:32:17;15.57;;;9.13;;
10687;SDS011;5392;42.688;23.298;2024-02-26T00:34:43;17.95;;;9.50;;
10687;SDS011;5392;42.688;23.298;2024-02-26T00:37:08;18.55;;;9.95;;
10687;SDS011;5392;42.688;23.298;2024-02-26T00:39:34;18.33;;;9.68;;
10687;SDS011;5392;42.688;23.298;2024-02-26T00:41:59;18.65;;;8.65;;
10687;SDS011;5392;42.688;23.298;2024-02-26T00:44:25;17.38;;;9.10;;
10687;SDS011;5392;42.688;23.298;2024-02-26T00:46:50;16.83;;;9.13;;
10687;SDS011;5392;42.688;23.298;2024-02-26T00:49:16;16.80;;;8.63;;
10687;SDS011;5392;42.688;23.298;2024-02-26T00:51:41;21.77;;;9.43;;
10687;SDS011;5392;42.688;23.298;2024-02-26T00:54:07;14.18;;;9.05;;
10687;SDS011;5392;42.688;23.298;2024-02-26T00:56:32;17.02;;;9.27;;
10687;SDS011;5392;42.688;23.298;2024-02-26T00:58:58;17.02;;;8.65;;
10687;SDS011;5392;42.688;23.298;2024-02-26T01:01:23;18.33;;;9.18;;
10687;SDS011;5392;42.688;23.298;2024-02-26T01:03:49;16.98;;;9.15;;
10687;SDS011;5392;42.688;23.298;2024-02-26T01:06:14;16.40;;;8.65;;
10687;SDS011;5392;42.688;23.298;2024-02-26T01:08:40;15.68;;;8.82;;
10687;SDS011;5392;42.688;23.298;2024-02-26T01:11:05;19.35;;;9.88;;
10687;SDS011;5392;42.688;23.298;2024-02-26T01:13:31;15.88;;;8.68;;
10687;SDS011;5392;42.688;23.298;2024-02-26T01:15:57;17.52;;;9.52;;
10687;SDS011;5392;42.688;23.298;2024-02-26T01:18:22;15.27;;;9.35;;
10687;SDS011;5392;42.688;23.298;2024-02-26T01:20:48;16.92;;;8.88;;
10687;SDS011;5392;42.688;23.298;2024-02-26T01:23:13;19.23;;;9.23;;
10687;SDS011;5392;42.688;23.298;2024-02-26T01:25:39;18.00;;;9.73;;
10687;SDS011;5392;42.688;23.298;2024-02-26T01:28:05;16.92;;;9.50;;
10687;SDS011;5392;42.688;23.298;2024-02-26T01:30:31;16.45;;;9.65;;
10687;SDS011;5392;42.688;23.298;2024-02-26T01:32:56;19.95;;;9.07;;
10687;SDS011;5392;42.688;23.298;2024-02-26T01:35:22;16.95;;;9.35;;
10687;SDS011;5392;42.688;23.298;2024-02-26T01:37:48;19.80;;;9.60;;
10687;SDS011;5392;42.688;23.298;2024-02-26T01:40:13;17.55;;;10.25;;
10687;SDS011;5392;42.688;23.298;2024-02-26T01:42:43;24.52;;;13.73;;
10687;SDS011;5392;42.688;23.298;2024-02-26T01:45:12;29.02;;;14.93;;
10687;SDS011;5392;42.688;23.298;2024-02-26T01:47:41;24.90;;;13.02;;
10687;SDS011;5392;42.688;23.298;2024-02-26T01:50:07;32.22;;;16.13;;
10687;SDS011;5392;42.688;23.298;2024-02-26T01:52:33;30.90;;;15.80;;
10687;SDS011;5392;42.688;23.298;2024-02-26T01:54:59;30.23;;;15.77;;
10687;SDS011;5392;42.688;23.298;2024-02-26T01:57:26;32.22;;;14.82;;
10687;SDS011;5392;42.688;23.298;2024-02-26T01:59:53;27.20;;;14.52;;
10687;SDS011;5392;42.688;23.298;2024-02-26T02:04:45;23.25;;;13.55;;
10687;SDS011;5392;42.688;23.298;2024-02-26T02:07:11;27.02;;;13.80;;
10687;SDS011;5392;42.688;23.298;2024-02-26T02:09:37;27.63;;;14.90;;
10687;SDS011;5392;42.688;23.298;2024-02-26T02:12:03;30.60;;;14.65;;
10687;SDS011;5392;42.688;23.298;2024-02-26T02:14:29;29.98;;;14.52;;
10687;SDS011;5392;42.688;23.298;2024-02-26T02:16:55;28.67;;;15.90;;
10687;SDS011;5392;42.688;23.298;2024-02-26T02:19:20;32.92;;;15.85;;
10687;SDS011;5392;42.688;23.298;2024-02-26T02:21:46;36.05;;;16.70;;
10687;SDS011;5392;42.688;23.298;2024-02-26T02:24:11;31.02;;;15.43;;
10687;SDS011;5392;42.688;23.298;2024-02-26T02:26:37;30.60;;;15.50;;
10687;SDS011;5392;42.688;23.298;2024-02-26T02:29:05;29.88;;;14.38;;
10687;SDS011;5392;42.688;23.298;2024-02-26T02:31:32;26.98;;;13.93;;
10687;SDS011;5392;42.688;23.298;2024-02-26T02:33:58;27.90;;;14.07;;
10687;SDS011;5392;42.688;23.298;2024-02-26T02:36:23;28.98;;;14.73;;
10687;SDS011;5392;42.688;23.298;2024-02-26T02:38:49;31.98;;;15.45;;
10687;SDS011;5392;42.688;23.298;2024-02-26T02:41:16;27.63;;;13.85;;
10687;SDS011;5392;42.688;23.298;2024-02-26T02:43:41;29.13;;;15.07;;
10687;SDS011;5392;42.688;23.298;2024-02-26T02:46:07;30.02;;;14.18;;
10687;SDS011;5392;42.688;23.298;2024-02-26T02:48:32;24.60;;;13.23;;
10687;SDS011;5392;42.688;23.298;2024-02-26T02:50:59;25.27;;;12.75;;
10687;SDS011;5392;42.688;23.298;2024-02-26T02:53:24;26.75;;;12.75;;
10687;SDS011;5392;42.688;23.298;2024-02-26T02:55:50;29.73;;;13.80;;
10687;SDS011;5392;42.688;23.298;2024-02-26T02:58:15;22.42;;;12.48;;
10687;SDS011;5392;42.688;23.298;2024-02-26T03:00:41;25.77;;;14.00;;
10687;SDS011;5392;42.688;23.298;2024-02-26T03:03:06;28.75;;;14.45;;
10687;SDS011;5392;42.688;23.298;2024-02-26T03:05:32;24.30;;;12.93;;
10687;SDS011;5392;42.688;23.298;2024-02-26T03:07:57;30.90;;;13.70;;
10687;SDS011;5392;42.688;23.298;2024-02-26T03:10:23;29.95;;;13.10;;
10687;SDS011;5392;42.688;23.298;2024-02-26T03:12:49;30.17;;;13.77;;
10687;SDS011;5392;42.688;23.298;2024-02-26T03:17:40;22.55;;;11.88;;
10687;SDS011;5392;42.688;23.298;2024-02-26T03:20:06;22.75;;;12.55;;
10687;SDS011;5392;42.688;23.298;2024-02-26T03:22:33;24.30;;;12.60;;
10687;SDS011;5392;42.688;23.298;2024-02-26T03:24:59;26.38;;;12.70;;
10687;SDS011;5392;42.688;23.298;2024-02-26T03:27:24;28.80;;;13.00;;
10687;SDS011;5392;42.688;23.298;2024-02-26T03:29:50;24.88;;;13.50;;
10687;SDS011;5392;42.688;23.298;2024-02-26T03:32:16;29.52;;;14.43;;
10687;SDS011;5392;42.688;23.298;2024-02-26T03:34:41;26.48;;;12.60;;
10687;SDS011;5392;42.688;23.298;2024-02-26T03:37:07;27.38;;;14.35;;
10687;SDS011;5392;42.688;23.298;2024-02-26T03:39:35;33.30;;;15.07;;
10687;SDS011;5392;42.688;23.298;2024-02-26T03:42:00;32.10;;;15.35;;
10687;SDS011;5392;42.688;23.298;2024-02-26T03:44:26;27.95;;;15.07;;
10687;SDS011;5392;42.688;23.298;2024-02-26T03:46:51;32.33;;;15.60;;
10687;SDS011;5392;42.688;23.298;2024-02-26T03:49:17;28.60;;;15.25;;
10687;SDS011;5392;42.688;23.298;2024-02-26T03:51:43;28.05;;;13.85;;
10687;SDS011;5392;42.688;23.298;2024-02-26T03:54:08;24.15;;;14.18;;
10687;SDS011;5392;42.688;23.298;2024-02-26T03:56:34;30.50;;;15.25;;
10687;SDS011;5392;42.688;23.298;2024-02-26T03:58:59;29.42;;;14.70;;
10687;SDS011;5392;42.688;23.298;2024-02-26T04:01:27;29.20;;;14.55;;
10687;SDS011;5392;42.688;23.298;2024-02-26T04:03:52;27.92;;;14.55;;
10687;SDS011;5392;42.688;23.298;2024-02-26T04:06:17;31.05;;;14.50;;
10687;SDS011;5392;42.688;23.298;2024-02-26T04:08:45;30.45;;;14.80;;
10687;SDS011;5392;42.688;23.298;2024-02-26T04:11:11;30.20;;;15.30;;
10687;SDS011;5392;42.688;23.298;2024-02-26T04:13:37;26.95;;;14.93;;
10687;SDS011;5392;42.688;23.298;2024-02-26T04:16:06;35.33;;;16.30;;
10687;SDS011;5392;42.688;23.298;2024-02-26T04:18:32;33.97;;;16.33;;
10687;SDS011;5392;42.688;23.298;2024-02-26T04:20:58;34.28;;;16.00;;
10687;SDS011;5392;42.688;23.298;2024-02-26T04:23:24;29.35;;;14.82;;
10687;SDS011;5392;42.688;23.298;2024-02-26T04:25:50;31.83;;;15.25;;
10687;SDS011;5392;42.688;23.298;2024-02-26T04:28:15;29.20;;;15.57;;
10687;SDS011;5392;42.688;23.298;2024-02-26T04:30:41;33.95;;;15.00;;
10687;SDS011;5392;42.688;23.298;2024-02-26T04:33:07;33.17;;;15.38;;
10687;SDS011;5392;42.688;23.298;2024-02-26T04:35:32;33.35;;;15.50;;
10687;SDS011;5392;42.688;23.298;2024-02-26T04:37:58;28.00;;;14.88;;
10687;SDS011;5392;42.688;23.298;2024-02-26T04:40:23;27.10;;;14.00;;
10687;SDS011;5392;42.688;23.298;2024-02-26T04:42:49;27.75;;;14.13;;
10687;SDS011;5392;42.688;23.298;2024-02-26T04:45:15;31.08;;;13.88;;
10687;SDS011;5392;42.688;23.298;2024-02-26T04:47:40;31.02;;;16.65;;
10687;SDS011;5392;42.688;23.298;2024-02-26T04:50:06;29.55;;;15.77;;
10687;SDS011;5392;42.688;23.298;2024-02-26T04:52:32;30.77;;;15.43;;
10687;SDS011;5392;42.688;23.298;2024-02-26T04:54:57;30.88;;;15.30;;
10687;SDS011;5392;42.688;23.298;2024-02-26T04:57:25;37.88;;;16.98;;
10687;SDS011;5392;42.688;23.298;2024-02-26T05:02:16;110.60;;;35.60;;
10687;SDS011;5392;42.688;23.298;2024-02-26T05:04:42;51.97;;;21.98;;
10687;SDS011;5392;42.688;23.298;2024-02-26T05:07:07;33.47;;;16.40;;
10687;SDS011;5392;42.688;23.298;2024-02-26T05:09:33;28.00;;;15.27;;
10687;SDS011;5392;42.688;23.298;2024-02-26T05:12:00;33.65;;;16.40;;
10687;SDS011;5392;42.688;23.298;2024-02-26T05:14:25;35.15;;;16.27;;
10687;SDS011;5392;42.688;23.298;2024-02-26T05:16:50;35.65;;;16.33;;
10687;SDS011;5392;42.688;23.298;2024-02-26T05:19:16;32.33;;;15.95;;
10687;SDS011;5392;42.688;23.298;2024-02-26T05:21:41;32.25;;;16.35;;
10687;SDS011;5392;42.688;23.298;2024-02-26T05:24:09;36.40;;;16.27;;
10687;SDS011;5392;42.688;23.298;2024-02-26T05:26:34;35.60;;;17.70;;
10687;SDS011;5392;42.688;23.298;2024-02-26T05:29:00;32.60;;;17.75;;
10687;SDS011;5392;42.688;23.298;2024-02-26T05:31:26;36.13;;;17.65;;
10687;SDS011;5392;42.688;23.298;2024-02-26T05:33:52;33.15;;;16.67;;
10687;SDS011;5392;42.688;23.298;2024-02-26T05:36:18;33.90;;;16.90;;
10687;SDS011;5392;42.688;23.298;2024-02-26T05:38:44;34.83;;;16.85;;
10687;SDS011;5392;42.688;23.298;2024-02-26T05:41:11;39.20;;;17.63;;
10687;SDS011;5392;42.688;23.298;2024-02-26T05:43:37;37.00;;;17.67;;
10687;SDS011;5392;42.688;23.298;2024-02-26T05:46:02;35.47;;;16.30;;
10687;SDS011;5392;42.688;23.298;2024-02-26T05:48:28;34.25;;;17.15;;
10687;SDS011;5392;42.688;23.298;2024-02-26T05:50:53;42.13;;;19.88;;
10687;SDS011;5392;42.688;23.298;2024-02-26T05:53:19;44.42;;;21.05;;
10687;SDS011;5392;42.688;23.298;2024-02-26T05:55:44;47.85;;;19.38;;
10687;SDS011;5392;42.688;23.298;2024-02-26T05:58:10;37.47;;;18.40;;
10687;SDS011;5392;42.688;23.298;2024-02-26T06:00:35;35.50;;;18.63;;
10687;SDS011;5392;42.688;23.298;2024-02-26T06:03:01;35.15;;;18.65;;
10687;SDS011;5392;42.688;23.298;2024-02-26T06:05:27;37.97;;;19.30;;
10687;SDS011;5392;42.688;23.298;2024-02-26T06:07:52;35.58;;;18.77;;
10687;SDS011;5392;42.688;23.298;2024-02-26T06:10:18;37.70;;;18.35;;
10687;SDS011;5392;42.688;23.298;2024-02-26T06:12:46;36.30;;;19.60;;
10687;SDS011;5392;42.688;23.298;2024-02-26T06:15:12;40.17;;;18.60;;
10687;SDS011;5392;42.688;23.298;2024-02-26T06:17:38;38.08;;;19.65;;
10687;SDS011;5392;42.688;23.298;2024-02-26T06:20:03;37.33;;;19.13;;
10687;SDS011;5392;42.688;23.298;2024-02-26T06:22:31;31.92;;;17.27;;
10687;SDS011;5392;42.688;23.298;2024-02-26T06:24:57;38.22;;;17.33;;
10687;SDS011;5392;42.688;23.298;2024-02-26T06:27:23;32.33;;;16.48;;
10687;SDS011;5392;42.688;23.298;2024-02-26T06:29:49;36.15;;;17.95;;
10687;SDS011;5392;42.688;23.298;2024-02-26T06:32:15;35.78;;;18.17;;
10687;SDS011;5392;42.688;23.298;2024-02-26T06:34:40;34.40;;;17.05;;
10687;SDS011;5392;42.688;23.298;2024-02-26T06:37:07;30.33;;;16.00;;
10687;SDS011;5392;42.688;23.298;2024-02-26T06:39:33;36.25;;;18.65;;
10687;SDS011;5392;42.688;23.298;2024-02-26T06:41:58;36.53;;;17.23;;
10687;SDS011;5392;42.688;23.298;2024-02-26T06:44:27;33.60;;;16.98;;
10687;SDS011;5392;42.688;23.298;2024-02-26T06:46:57;35.08;;;17.30;;
10687;SDS011;5392;42.688;23.298;2024-02-26T06:49:24;33.10;;;16.08;;
10687;SDS011;5392;42.688;23.298;2024-02-26T06:51:50;29.25;;;14.65;;
10687;SDS011;5392;42.688;23.298;2024-02-26T06:54:15;24.25;;;12.75;;
10687;SDS011;5392;42.688;23.298;2024-02-26T06:56:41;20.20;;;11.13;;
10687;SDS011;5392;42.688;23.298;2024-02-26T06:59:06;26.27;;;13.63;;
10687;SDS011;5392;42.688;23.298;2024-02-26T07:01:32;25.23;;;13.25;;
10687;SDS011;5392;42.688;23.298;2024-02-26T07:03:57;23.05;;;12.65;;
10687;SDS011;5392;42.688;23.298;2024-02-26T07:06:23;26.02;;;14.65;;
10687;SDS011;5392;42.688;23.298;2024-02-26T07:08:48;23.30;;;12.38;;
10687;SDS011;5392;42.688;23.298;2024-02-26T07:11:14;19.77;;;10.63;;
10687;SDS011;5392;42.688;23.298;2024-02-26T07:13:39;36.08;;;16.05;;
10687;SDS011;5392;42.688;23.298;2024-02-26T07:16:05;29.45;;;16.30;;
10687;SDS011;5392;42.688;23.298;2024-02-26T07:18:31;30.90;;;16.95;;
10687;SDS011;5392;42.688;23.298;2024-02-26T07:20:56;31.10;;;15.93;;
10687;SDS011;5392;42.688;23.298;2024-02-26T07:23:21;32.03;;;16.83;;
10687;SDS011;5392;42.688;23.298;2024-02-26T07:25:47;29.55;;;15.52;;
10687;SDS011;5392;42.688;23.298;2024-02-26T07:28:14;32.33;;;16.95;;
10687;SDS011;5392;42.688;23.298;2024-02-26T07:30:40;30.90;;;17.23;;
10687;SDS011;5392;42.688;23.298;2024-02-26T07:33:06;33.92;;;17.80;;
10687;SDS011;5392;42.688;23.298;2024-02-26T07:35:32;37.15;;;17.92;;
10687;SDS011;5392;42.688;23.298;2024-02-26T07:37:58;30.35;;;18.23;;
10687;SDS011;5392;42.688;23.298;2024-02-26T07:40:24;36.83;;;17.90;;
10687;SDS011;5392;42.688;23.298;2024-02-26T07:42:49;29.02;;;15.65;;
10687;SDS011;5392;42.688;23.298;2024-02-26T07:45:15;36.15;;;17.38;;
10687;SDS011;5392;42.688;23.298;2024-02-26T07:47:42;25.80;;;15.30;;
10687;SDS011;5392;42.688;23.298;2024-02-26T07:50:08;39.65;;;17.65;;
10687;SDS011;5392;42.688;23.298;2024-02-26T07:52:34;36.80;;;17.50;;
10687;SDS011;5392;42.688;23.298;2024-02-26T07:54:59;38.30;;;19.85;;
10687;SDS011;5392;42.688;23.298;2024-02-26T07:57:25;37.60;;;20.13;;
10687;SDS011;5392;42.688;23.298;2024-02-26T07:59:50;36.72;;;19.17;;
10687;SDS011;5392;42.688;23.298;2024-02-26T08:02:16;38.83;;;20.73;;
10687;SDS011;5392;42.688;23.298;2024-02-26T08:04:43;40.58;;;20.65;;
10687;SDS011;5392;42.688;23.298;2024-02-26T08:07:08;38.40;;;20.02;;
10687;SDS011;5392;42.688;23.298;2024-02-26T08:09:34;37.00;;;19.38;;
10687;SDS011;5392;42.688;23.298;2024-02-26T08:11:59;38.40;;;20.38;;
10687;SDS011;5392;42.688;23.298;2024-02-26T08:14:24;36.15;;;18.55;;
10687;SDS011;5392;42.688;23.298;2024-02-26T08:16:50;38.17;;;19.42;;
10687;SDS011;5392;42.688;23.298;2024-02-26T08:19:16;33.22;;;18.90;;
10687;SDS011;5392;42.688;23.298;2024-02-26T08:21:42;39.35;;;20.08;;
10687;SDS011;5392;42.688;23.298;2024-02-26T08:24:08;35.85;;;19.60;;
10687;SDS011;5392;42.688;23.298;2024-02-26T08:26:34;35.17;;;20.63;;
10687;SDS011;5392;42.688;23.298;2024-02-26T08:28:59;38.80;;;21.25;;
10687;SDS011;5392;42.688;23.298;2024-02-26T08:31:24;39.83;;;21.08;;
10687;SDS011;5392;42.688;23.298;2024-02-26T08:33:50;34.53;;;19.02;;
10687;SDS011;5392;42.688;23.298;2024-02-26T08:36:15;31.65;;;18.40;;
10687;SDS011;5392;42.688;23.298;2024-02-26T08:38:41;38.83;;;19.73;;
10687;SDS011;5392;42.688;23.298;2024-02-26T08:41:06;35.33;;;20.05;;
10687;SDS011;5392;42.688;23.298;2024-02-26T08:43:32;38.90;;;19.70;;
10687;SDS011;5392;42.688;23.298;2024-02-26T08:45:57;44.15;;;21.33;;
10687;SDS011;5392;42.688;23.298;2024-02-26T08:48:23;36.60;;;19.55;;
10687;SDS011;5392;42.688;23.298;2024-02-26T08:50:49;33.35;;;19.33;;
10687;SDS011;5392;42.688;23.298;2024-02-26T08:55:40;38.83;;;20.03;;
10687;SDS011;5392;42.688;23.298;2024-02-26T08:58:05;33.53;;;18.65;;
10687;SDS011;5392;42.688;23.298;2024-02-26T09:02:56;16.87;;;10.80;;
10687;SDS011;5392;42.688;23.298;2024-02-26T09:05:22;20.63;;;10.52;;
10687;SDS011;5392;42.688;23.298;2024-02-26T09:07:47;9.80;;;5.70;;
10687;SDS011;5392;42.688;23.298;2024-02-26T09:12:38;8.38;;;5.93;;
10687;SDS011;5392;42.688;23.298;2024-02-26T09:15:05;13.57;;;7.22;;
10687;SDS011;5392;42.688;23.298;2024-02-26T09:17:32;14.63;;;8.50;;
10687;SDS011;5392;42.688;23.298;2024-02-26T09:19:58;14.75;;;9.88;;
10687;SDS011;5392;42.688;23.298;2024-02-26T09:22:23;12.52;;;8.02;;
10687;SDS011;5392;42.688;23.298;2024-02-26T09:24:49;17.33;;;7.93;;
10687;SDS011;5392;42.688;23.298;2024-02-26T09:27:16;15.48;;;7.15;;
10687;SDS011;5392;42.688;23.298;2024-02-26T09:32:07;17.65;;;8.88;;
10687;SDS011;5392;42.688;23.298;2024-02-26T09:34:33;14.07;;;7.45;;
10687;SDS011;5392;42.688;23.298;2024-02-26T09:36:59;10.27;;;6.60;;
10687;SDS011;5392;42.688;23.298;2024-02-26T09:39:25;10.10;;;6.47;;
10687;SDS011;5392;42.688;23.298;2024-02-26T09:41:51;10.68;;;6.00;;
10687;SDS011;5392;42.688;23.298;2024-02-26T09:44:20;12.13;;;6.15;;
10687;SDS011;5392;42.688;23.298;2024-02-26T09:46:47;8.18;;;5.07;;
10687;SDS011;5392;42.688;23.298;2024-02-26T09:49:16;10.23;;;6.38;;
10687;SDS011;5392;42.688;23.298;2024-02-26T09:51:44;7.60;;;5.20;;
10687;SDS011;5392;42.688;23.298;2024-02-26T09:56:38;9.18;;;5.88;;
10687;SDS011;5392;42.688;23.298;2024-02-26T09:59:06;8.43;;;5.18;;
10687;SDS011;5392;42.688;23.298;2024-02-26T10:01:38;6.20;;;4.65;;
10687;SDS011;5392;42.688;23.298;2024-02-26T10:04:07;10.00;;;5.45;;
10687;SDS011;5392;42.688;23.298;2024-02-26T10:06:36;7.88;;;4.80;;
10687;SDS011;5392;42.688;23.298;2024-02-26T10:09:02;6.15;;;4.38;;
10687;SDS011;5392;42.688;23.298;2024-02-26T10:11:31;5.70;;;4.40;;
10687;SDS011;5392;42.688;23.298;2024-02-26T10:13:57;6.30;;;4.82;;
10687;SDS011;5392;42.688;23.298;2024-02-26T10:18:49;6.70;;;4.43;;
10687;SDS011;5392;42.688;23.298;2024-02-26T10:21:22;9.90;;;4.80;;
10687;SDS011;5392;42.688;23.298;2024-02-26T10:23:48;9.57;;;6.00;;
10687;SDS011;5392;42.688;23.298;2024-02-26T10:26:14;5.70;;;5.10;;
10687;SDS011;5392;42.688;23.298;2024-02-26T10:28:44;8.38;;;5.90;;
10687;SDS011;5392;42.688;23.298;2024-02-26T10:31:10;7.10;;;4.97;;
10687;SDS011;5392;42.688;23.298;2024-02-26T10:33:38;8.13;;;5.32;;
10687;SDS011;5392;42.688;23.298;2024-02-26T10:36:05;7.82;;;5.35;;
10687;SDS011;5392;42.688;23.298;2024-02-26T10:38:37;9.70;;;4.70;;
10687;SDS011;5392;42.688;23.298;2024-02-26T10:41:03;5.85;;;4.43;;
10687;SDS011;5392;42.688;23.298;2024-02-26T10:43:29;5.32;;;3.83;;
10687;SDS011;5392;42.688;23.298;2024-02-26T10:48:20;7.05;;;4.32;;
10687;SDS011;5392;42.688;23.298;2024-02-26T10:53:16;4.63;;;4.07;;
10687;SDS011;5392;42.688;23.298;2024-02-26T10:55:48;6.88;;;4.20;;
10687;SDS011;5392;42.688;23.298;2024-02-26T10:58:19;5.72;;;4.20;;
10687;SDS011;5392;42.688;23.298;2024-02-26T11:00:46;5.43;;;4.93;;
10687;SDS011;5392;42.688;23.298;2024-02-26T11:03:14;7.57;;;4.95;;
10687;SDS011;5392;42.688;23.298;2024-02-26T11:05:45;6.43;;;4.10;;
10687;SDS011;5392;42.688;23.298;2024-02-26T11:08:15;9.45;;;5.35;;
10687;SDS011;5392;42.688;23.298;2024-02-26T11:10:43;6.43;;;4.60;;
10687;SDS011;5392;42.688;23.298;2024-02-26T11:13:14;5.35;;;3.63;;
10687;SDS011;5392;42.688;23.298;2024-02-26T11:15:40;5.78;;;4.65;;
10687;SDS011;5392;42.688;23.298;2024-02-26T11:18:07;5.88;;;4.43;;
10687;SDS011;5392;42.688;23.298;2024-02-26T11:20:34;5.72;;;4.55;;
10687;SDS011;5392;42.688;23.298;2024-02-26T11:23:03;6.13;;;4.30;;
10687;SDS011;5392;42.688;23.298;2024-02-26T11:30:23;7.50;;;5.03;;
10687;SDS011;5392;42.688;23.298;2024-02-26T11:32:51;7.22;;;4.60;;
10687;SDS011;5392;42.688;23.298;2024-02-26T11:35:18;5.18;;;3.90;;
10687;SDS011;5392;42.688;23.298;2024-02-26T11:37:51;5.43;;;4.13;;
10687;SDS011;5392;42.688;23.298;2024-02-26T11:40:18;5.10;;;4.30;;
10687;SDS011;5392;42.688;23.298;2024-02-26T11:48:03;7.07;;;4.75;;
10687;SDS011;5392;42.688;23.298;2024-02-26T11:58:42;6.53;;;4.70;;
10687;SDS011;5392;42.688;23.298;2024-02-26T12:03:54;6.60;;;3.75;;
10687;SDS011;5392;42.688;23.298;2024-02-26T12:06:20;5.93;;;4.07;;
10687;SDS011;5392;42.688;23.298;2024-02-26T12:08:46;5.35;;;4.05;;
10687;SDS011;5392;42.688;23.298;2024-02-26T12:13:40;6.15;;;4.32;;
10687;SDS011;5392;42.688;23.298;2024-02-26T12:18:31;4.88;;;3.92;;
10687;SDS011;5392;42.688;23.298;2024-02-26T12:23:29;7.30;;;4.10;;
10687;SDS011;5392;42.688;23.298;2024-02-26T12:26:01;3.55;;;3.22;;
10687;SDS011;5392;42.688;23.298;2024-02-26T12:28:28;5.95;;;3.70;;
10687;SDS011;5392;42.688;23.298;2024-02-26T12:30:54;6.03;;;4.47;;
10687;SDS011;5392;42.688;23.298;2024-02-26T12:35:45;5.37;;;3.70;;
10687;SDS011;5392;42.688;23.298;2024-02-26T12:38:14;5.18;;;3.80;;
10687;SDS011;5392;42.688;23.298;2024-02-26T12:40:40;5.78;;;3.70;;
10687;SDS011;5392;42.688;23.298;2024-02-26T12:45:33;5.15;;;3.90;;
10687;SDS011;5392;42.688;23.298;2024-02-26T12:50:24;6.37;;;3.87;;
10687;SDS011;5392;42.688;23.298;2024-02-26T12:52:49;10.85;;;3.92;;
10687;SDS011;5392;42.688;23.298;2024-02-26T12:55:18;4.40;;;3.60;;
10687;SDS011;5392;42.688;23.298;2024-02-26T12:57:46;5.68;;;3.40;;
10687;SDS011;5392;42.688;23.298;2024-02-26T13:00:15;6.80;;;3.55;;
10687;SDS011;5392;42.688;23.298;2024-02-26T13:02:43;5.90;;;4.10;;
10687;SDS011;5392;42.688;23.298;2024-02-26T13:05:10;3.70;;;3.20;;
10687;SDS011;5392;42.688;23.298;2024-02-26T13:07:41;5.05;;;3.95;;
10687;SDS011;5392;42.688;23.298;2024-02-26T13:10:08;5.20;;;3.90;;
10687;SDS011;5392;42.688;23.298;2024-02-26T13:12:34;5.18;;;3.38;;
10687;SDS011;5392;42.688;23.298;2024-02-26T13:17:25;7.18;;;3.33;;
10687;SDS011;5392;42.688;23.298;2024-02-26T13:19:53;6.35;;;3.60;;
10687;SDS011;5392;42.688;23.298;2024-02-26T13:22:22;3.45;;;3.15;;
10687;SDS011;5392;42.688;23.298;2024-02-26T13:24:55;4.60;;;3.25;;
10687;SDS011;5392;42.688;23.298;2024-02-26T13:27:24;5.55;;;3.40;;
10687;SDS011;5392;42.688;23.298;2024-02-26T13:32:39;5.20;;;3.38;;
10687;SDS011;5392;42.688;23.298;2024-02-26T13:39:56;5.10;;;3.30;;
10687;SDS011;5392;42.688;23.298;2024-02-26T13:44:47;5.53;;;3.13;;
10687;SDS011;5392;42.688;23.298;2024-02-26T13:49:38;5.35;;;3.47;;
10687;SDS011;5392;42.688;23.298;2024-02-26T13:54:29;4.45;;;3.22;;
10687;SDS011;5392;42.688;23.298;2024-02-26T13:59:20;5.95;;;3.55;;
10687;SDS011;5392;42.688;23.298;2024-02-26T14:04:11;4.47;;;3.10;;
10687;SDS011;5392;42.688;23.298;2024-02-26T14:09:01;5.60;;;2.80;;
10687;SDS011;5392;42.688;23.298;2024-02-26T14:11:29;4.20;;;3.03;;
10687;SDS011;5392;42.688;23.298;2024-02-26T14:16:19;5.77;;;3.70;;
10687;SDS011;5392;42.688;23.298;2024-02-26T14:21:11;5.50;;;3.42;;
10687;SDS011;5392;42.688;23.298;2024-02-26T14:26:02;4.35;;;3.17;;
10687;SDS011;5392;42.688;23.298;2024-02-26T14:33:19;4.72;;;3.45;;
10687;SDS011;5392;42.688;23.298;2024-02-26T14:38:10;6.37;;;3.20;;
10687;SDS011;5392;42.688;23.298;2024-02-26T14:45:29;5.47;;;3.05;;
10687;SDS011;5392;42.688;23.298;2024-02-26T14:50:20;5.18;;;3.15;;
10687;SDS011;5392;42.688;23.298;2024-02-26T14:52:45;4.30;;;3.03;;
10687;SDS011;5392;42.688;23.298;2024-02-26T14:57:36;5.17;;;3.10;;
10687;SDS011;5392;42.688;23.298;2024-02-26T15:02:30;4.60;;;2.88;;
10687;SDS011;5392;42.688;23.298;2024-02-26T15:07:21;4.32;;;2.72;;
10687;SDS011;5392;42.688;23.298;2024-02-26T15:09:47;5.00;;;3.70;;
10687;SDS011;5392;42.688;23.298;2024-02-26T15:12:12;5.32;;;3.00;;
10687;SDS011;5392;42.688;23.298;2024-02-26T15:17:04;4.25;;;2.35;;
10687;SDS011;5392;42.688;23.298;2024-02-26T15:19:29;3.90;;;3.08;;
10687;SDS011;5392;42.688;23.298;2024-02-26T15:24:20;5.37;;;2.63;;
10687;SDS011;5392;42.688;23.298;2024-02-26T15:26:46;4.43;;;2.88;;
10687;SDS011;5392;42.688;23.298;2024-02-26T15:31:37;7.40;;;3.33;;
10687;SDS011;5392;42.688;23.298;2024-02-26T15:36:28;3.85;;;2.90;;
10687;SDS011;5392;42.688;23.298;2024-02-26T15:38:54;5.43;;;3.53;;
10687;SDS011;5392;42.688;23.298;2024-02-26T15:43:45;6.13;;;3.13;;
10687;SDS011;5392;42.688;23.298;2024-02-26T15:48:37;4.30;;;3.13;;
10687;SDS011;5392;42.688;23.298;2024-02-26T15:51:03;5.45;;;3.47;;
10687;SDS011;5392;42.688;23.298;2024-02-26T15:53:29;5.15;;;3.67;;
10687;SDS011;5392;42.688;23.298;2024-02-26T15:58:20;6.07;;;3.70;;
10687;SDS011;5392;42.688;23.298;2024-02-26T16:03:12;9.10;;;3.67;;
10687;SDS011;5392;42.688;23.298;2024-02-26T16:08:24;3.97;;;3.40;;
10687;SDS011;5392;42.688;23.298;2024-02-26T16:10:49;5.28;;;3.17;;
10687;SDS011;5392;42.688;23.298;2024-02-26T16:15:42;8.43;;;3.80;;
10687;SDS011;5392;42.688;23.298;2024-02-26T16:18:10;3.60;;;2.75;;
10687;SDS011;5392;42.688;23.298;2024-02-26T16:23:01;5.88;;;2.85;;
10687;SDS011;5392;42.688;23.298;2024-02-26T16:25:31;4.70;;;2.80;;
10687;SDS011;5392;42.688;23.298;2024-02-26T16:30:22;7.18;;;3.28;;
10687;SDS011;5392;42.688;23.298;2024-02-26T16:32:48;5.40;;;3.28;;
10687;SDS011;5392;42.688;23.298;2024-02-26T16:35:13;13.30;;;3.80;;
10687;SDS011;5392;42.688;23.298;2024-02-26T16:37:39;4.93;;;3.00;;
10687;SDS011;5392;42.688;23.298;2024-02-26T16:42:30;5.15;;;3.38;;
10687;SDS011;5392;42.688;23.298;2024-02-26T16:44:56;4.50;;;3.10;;
10687;SDS011;5392;42.688;23.298;2024-02-26T16:49:47;6.32;;;3.17;;
10687;SDS011;5392;42.688;23.298;2024-02-26T16:54:38;9.55;;;4.10;;
10687;SDS011;5392;42.688;23.298;2024-02-26T16:57:04;8.20;;;3.88;;
10687;SDS011;5392;42.688;23.298;2024-02-26T17:01:56;6.43;;;3.67;;